Cleveland, VA (24225)

8:52 PM EDT on August 31, 2016 (GMT -0400)
Southwest Virginia, 4 miles SSE | | Change Station

Elev 2650 ft 37.02 °N, 82.32 °W | Updated 29 minutes ago

Scattered Clouds
Scattered Clouds
74.0 °F
Feels Like 76 °F
N
0.0
Wind Variable Wind from North
Gusts 0.0 mph

Today
High -- | Low -- °F
--% Chance of Precip.
Yesterday
High -- | Low -- °F
Precip. -- in
Pressure 30.04 in
Visibility 10.0 miles
Clouds Scattered Clouds 8500 ft
Heat Index 76 °F
Dew Point 64 °F
Humidity 72%
Rainfall Not available.
Snow Depth Not available.
6:58 AM 7:57 PM
Waning Crescent, 0% visible
METAR KJFZ 010035Z AUTO 00000KT 10SM SCT085 24/20 A3004 RMK AO2 LTG DSNT SE T02410202
Pressure 30.04 in
Visibility 10.0 miles
Clouds Scattered Clouds 8500 ft
Heat Index 76 °F
Dew Point 64 °F
Humidity 72%
Rainfall Not available.
Snow Depth Not available.
6:58 AM 7:57 PM
Waning Crescent, 0% visible
METAR KJFZ 010035Z AUTO 00000KT 10SM SCT085 24/20 A3004 RMK AO2 LTG DSNT SE T02410202

10-Day Weather Forecast

Almanac

Astronomy

Aug. 31, 2016 Rise Set
Actual Time
Civil Twilight
Nautical Twilight
Astronomical Twilight
Moon
Length of Visible Light
Length of Day
Tomorrow will be .
, % of the Moon is Illuminated

Today's Extremes

State Highs State Lows

Community

WunderPhotos

Upload Photos

1,936,237 photos uploaded!

WunderBlog® & News

Nearby

Air Quality

  Air Quality AQ Index Pollutant
Not available.

Snow Depth

Station Depth Elevation

Earthquake Activity

City Distance Mag. Time & Date
Minimum magnitude displayed is 2.5.

Coastal Water Temperatures

Place Temperature

Stations

Nearby Weather Stations

Station Location Temp. Windchill Dew Point Humidity Wind Precip. Elev Updated Type
                   

Watches & Warnings

There are currently no watches in effect.